Home > Products > Valid Products > MTR

000
SAUS43 KBIS 220353
MTRN60
METAR KN60 220352Z AUTO 16011KT 18/09 A2961 RMK AO1 SLP025 T01830089





000
SAUS43 KBIS 220253
MTRN60
METAR KN60 220252Z AUTO 16011KT 19/10 A2961 RMK AO1 SLP026 T01890100
58002





000
SAUS43 KBIS 220253
MTRN60
METAR KN60 220252Z AUTO 16011KT 19/10 A2961 RMK AO1 SLP026 T01890100
58002





000
SAUS43 KBIS 220154
MTRN60
METAR KN60 220152Z AUTO 13006KT 17/09 A2962 RMK AO1 SLP032 T01670094





000
SAUS43 KBIS 220154
MTRN60
METAR KN60 220152Z AUTO 13006KT 17/09 A2962 RMK AO1 SLP032 T01670094





000
SAUS43 KBIS 220053
MTRN60
METAR KN60 220052Z AUTO 13005KT 19/09 A2962 RMK AO1 SLP034 T01890089





000
SAUS43 KBIS 212354
MTRN60
METAR KN60 212352Z AUTO 06003KT 21/09 A2962 RMK AO1 SLP029 T02060089
10239 20178 56010





000
SAUS43 KBIS 212253
MTRN60
METAR KN60 212252Z AUTO 13005KT 22/09 A2962 RMK AO1 SLP029 T02220089





000
SAUS43 KBIS 212253
MTRN60
METAR KN60 212252Z AUTO 13005KT 22/09 A2962 RMK AO1 SLP029 T02220089





000
SAUS43 KBIS 212154
MTRN60
METAR KN60 212152Z AUTO 15006KT 23/08 A2963 RMK AO1 SLP032 T02330083





000
SAUS43 KBIS 212154
MTRN60
METAR KN60 212152Z AUTO 15006KT 23/08 A2963 RMK AO1 SLP032 T02330083





000
SAUS43 KBIS 212053
MTRN60
METAR KN60 212052Z AUTO 17007KT 23/07 A2965 RMK AO1 SLP037 T02280072
56022





000
SAUS43 KBIS 211954
MTRN60
METAR KN60 211952Z AUTO 16009KT 21/06 A2967 RMK AO1 SLP045 T02110061





000
SAUS43 KBIS 211854
MTRN60
METAR KN60 211852Z AUTO 15010KT 19/06 A2969 RMK AO1 SLP055 T01940056





000
SAUS43 KBIS 211754
MTRN60
METAR KN60 211752Z AUTO 15010KT 18/05 A2972 RMK AO1 SLP066 T01780050
10178 20050 58023





000
SAUS43 KBIS 211654
MTRN60
METAR KN60 211652Z AUTO 15009KT 16/04 A2974 RMK AO1 SLP076 T01560039





000
SAUS43 KBIS 211654
MTRN60
METAR KN60 211652Z AUTO 15009KT 16/04 A2974 RMK AO1 SLP076 T01560039





000
SAUS43 KBIS 211554
MTRN60
METAR KN60 211552Z AUTO 16012KT 13/03 A2977 RMK AO1 SLP084 T01330033





000
SAUS43 KBIS 211554
MTRN60
METAR KN60 211552Z AUTO 16012KT 13/03 A2977 RMK AO1 SLP084 T01330033





000
SAUS43 KBIS 211453
MTRN60
METAR KN60 211452Z AUTO 14007KT 11/04 A2979 RMK AO1 SLP094 T01060039
58011





000
SAUS43 KBIS 211354
MTRN60
METAR KN60 211352Z AUTO 12006KT 08/04 A2981 RMK AO1 SLP101 T00780039





000
SAUS43 KBIS 211253
MTRN60
METAR KN60 211252Z AUTO 10007KT 06/03 A2981 RMK AO1 SLP103 T00560028





000
SAUS43 KBIS 211154
MTRN60
METAR KN60 211152Z AUTO 10007KT 07/02 A2982 RMK AO1 SLP105 T00670022
10106 20067 56010





000
SAUS43 KBIS 211154
MTRN60
METAR KN60 211152Z AUTO 10007KT 07/02 A2982 RMK AO1 SLP105 T00670022
10106 20067 56010





000
SAUS43 KBIS 211053
MTRN60
METAR KN60 211052Z AUTO 12006KT 09/02 A2983 RMK AO1 SLP102 T00940022





000
SAUS43 KBIS 211053
MTRN60
METAR KN60 211052Z AUTO 12006KT 09/02 A2983 RMK AO1 SLP102 T00940022





000
SAUS43 KBIS 210954
MTRN60
METAR KN60 210952Z AUTO 13009KT 10/02 A2985 RMK AO1 SLP105 T01000022





000
SAUS43 KBIS 210854
MTRN60
METAR KN60 210852Z AUTO 13007KT 10/02 A2986 RMK AO1 SLP109 T01000022
58007





000
SAUS43 KBIS 210753
MTRN60
METAR KN60 210752Z AUTO 13006KT 09/02 A2987 RMK AO1 SLP115 T00940017





000
SAUS43 KBIS 210653
MTRN60
METAR KN60 210652Z AUTO 00000KT 11/02 A2988 RMK AO1 SLP117 T01060022





000
SAUS43 KBIS 210554
MTRN60
METAR KN60 210552Z AUTO 10008KT 08/03 A2988 RMK AO1 SLP120 T00780028
10156 20072 402220000 58008





000
SAUS43 KBIS 210454
MTRN60
METAR KN60 210452Z AUTO 11007KT 08/03 A2989 RMK AO1 SLP126 T00780028





000
SAUS43 KBIS 210454
MTRN60
METAR KN60 210452Z AUTO 11007KT 08/03 A2989 RMK AO1 SLP126 T00780028





000
SAUS43 KBIS 210354
MTRN60
METAR KN60 210352Z AUTO 13006KT 10/03 A2990 RMK AO1 SLP130 T01000033





000
SAUS43 KBIS 210354
MTRN60
METAR KN60 210352Z AUTO 13006KT 10/03 A2990 RMK AO1 SLP130 T01000033





000
SAUS43 KBIS 210253
MTRN60
METAR KN60 210252Z AUTO 13006KT 11/03 A2990 RMK AO1 SLP135 T01060033
58002





000
SAUS43 KBIS 210253
MTRN60
METAR KN60 210252Z AUTO 13006KT 11/03 A2990 RMK AO1 SLP135 T01060033
58002





000
SAUS43 KBIS 210154
MTRN60
METAR KN60 210152Z AUTO 14006KT 11/04 A2991 RMK AO1 SLP141 T01060039





000
SAUS43 KBIS 210154
MTRN60
METAR KN60 210152Z AUTO 14006KT 11/04 A2991 RMK AO1 SLP141 T01060039





000
SAUS43 KBIS 210053
MTRN60
METAR KN60 210052Z AUTO 14004KT 13/04 A2991 RMK AO1 SLP139 T01280039





000
SAUS43 KBIS 202354
MTRN60
METAR KN60 202352Z AUTO 14007KT 16/05 A2991 RMK AO1 SLP137 T01560050
10222 20156 56006





000
SAUS43 KBIS 202254
MTRN60
METAR KN60 202252Z AUTO 16008KT 20/05 A2991 RMK AO1 SLP135 T02000050





000
SAUS43 KBIS 202254
MTRN60
METAR KN60 202252Z AUTO 16008KT 20/05 A2991 RMK AO1 SLP135 T02000050





000
SAUS43 KBIS 202154
MTRN60
METAR KN60 202152Z AUTO 17011KT 22/05 A2992 RMK AO1 SLP137 T02170050





000
SAUS43 KBIS 202154
MTRN60
METAR KN60 202152Z AUTO 17011KT 22/05 A2992 RMK AO1 SLP137 T02170050





000
SAUS43 KBIS 202053
MTRN60
METAR KN60 202052Z AUTO 17010KT 22/05 A2993 RMK AO1 SLP139 T02170050
56022





000
SAUS43 KBIS 201954
MTRN60
METAR KN60 201952Z AUTO 17012KT 22/04 A2995 RMK AO1 SLP146 T02170044





000
SAUS43 KBIS 201853
MTRN60
METAR KN60 201852Z AUTO 16013KT 21/04 A2997 RMK AO1 SLP153 T02060039





000
SAUS43 KBIS 201754
MTRN60
METAR KN60 201752Z AUTO 16009KT 18/06 A3000 RMK AO1 SLP164 T01830056
10183 20000 58012





000
SAUS43 KBIS 201654
MTRN60
METAR KN60 201652Z AUTO 17008KT 16/06 A3001 RMK AO1 SLP173 T01560056





000
SAUS43 KBIS 201554
MTRN60
METAR KN60 201552Z AUTO 17005KT 12/05 A3002 RMK AO1 SLP177 T01220050





000
SAUS43 KBIS 201453
MTRN60
METAR KN60 201452Z AUTO 12003KT 08/06 A3003 RMK AO1 SLP182 T00780056
50000





000
SAUS43 KBIS 201354
MTRN60
METAR KN60 201352Z AUTO 00000KT 02/01 A3003 RMK AO1 SLP185 T00220011





000
SAUS43 KBIS 201253
MTRN60
METAR KN60 201252Z AUTO 00000KT 01/01 A3004 RMK AO1 SLP185 T00110006





000
SAUS43 KBIS 201154
MTRN60
METAR KN60 201152Z AUTO 00000KT 02/01 A3003 RMK AO1 SLP181 T00170011
10044 20006 53003





000
SAUS43 KBIS 201053
MTRN60
METAR KN60 201052Z AUTO 00000KT 01/M01 A3002 RMK AO1 SLP175
T00061011





000
SAUS43 KBIS 201053
MTRN60
METAR KN60 201052Z AUTO 00000KT 01/M01 A3002 RMK AO1 SLP175
T00061011





000
SAUS43 KBIS 200954
MTRN60
METAR KN60 200952Z AUTO 00000KT 02/M01 A3002 RMK AO1 SLP173
T00171006





000
SAUS43 KBIS 200954
MTRN60
METAR KN60 200952Z AUTO 00000KT 02/M01 A3002 RMK AO1 SLP173
T00171006





000
SAUS43 KBIS 200854
MTRN60
METAR KN60 200852Z AUTO 00000KT 02/M01 A3002 RMK AO1 SLP172
T00221006 53003





000
SAUS43 KBIS 200754
MTRN60
METAR KN60 200752Z AUTO 00000KT 03/00 A3002 RMK AO1 SLP171 T00280000





000
SAUS43 KBIS 200754
MTRN60
METAR KN60 200752Z AUTO 00000KT 03/00 A3002 RMK AO1 SLP171 T00280000





000
SAUS43 KBIS 200653
MTRN60
METAR KN60 200652Z AUTO 00000KT 02/M01 A3002 RMK AO1 SLP170
T00221006





000
SAUS43 KBIS 200554
MTRN60
METAR KN60 200552Z AUTO 00000KT 04/M01 A3001 RMK AO1 SLP169
T00391006 10133 20022 402170022 53004





000
SAUS43 KBIS 200453
MTRN60
METAR KN60 200452Z AUTO 00000KT 03/00 A3000 RMK AO1 SLP168 T00330000





000
SAUS43 KBIS 200354
MTRN60
METAR KN60 200352Z AUTO 36005KT 05/01 A3000 RMK AO1 SLP167 T00500006





000
SAUS43 KBIS 200253
MTRN60
METAR KN60 200252Z AUTO 01003KT 07/01 A3000 RMK AO1 SLP169 T00670006
51007





000
SAUS43 KBIS 200154
MTRN60
METAR KN60 200152Z AUTO 00000KT 09/01 A2999 RMK AO1 SLP167 T00890006





000
SAUS43 KBIS 200053
MTRN60
METAR KN60 200052Z AUTO 00000KT 11/01 A2999 RMK AO1 SLP165 T01060006





000
SAUS43 KBIS 192354
MTRN60
METAR KN60 192352Z AUTO 33004KT 13/01 A2998 RMK AO1 SLP159 T01280006
10217 20128 53009





000
SAUS43 KBIS 192354
MTRN60
METAR KN60 192352Z AUTO 33004KT 13/01 A2998 RMK AO1 SLP159 T01280006
10217 20128 53009





000
SAUS43 KBIS 192253
MTRN60
METAR KN60 192252Z AUTO 01005KT 19/01 A2997 RMK AO1 SLP151 T01940006





000
SAUS43 KBIS 192253
MTRN60
METAR KN60 192252Z AUTO 01005KT 19/01 A2997 RMK AO1 SLP151 T01940006





000
SAUS43 KBIS 192154
MTRN60
METAR KN60 192152Z AUTO 34012KT 21/M01 A2996 RMK AO1 SLP145
T02061006





000
SAUS43 KBIS 192154
MTRN60
METAR KN60 192152Z AUTO 34012KT 21/M01 A2996 RMK AO1 SLP145
T02061006





000
SAUS43 KBIS 192054
MTRN60
METAR KN60 192052Z AUTO 31014KT 21/02 A2995 RMK AO1 SLP142 T02110022
55002





000
SAUS43 KBIS 191954
MTRN60
METAR KN60 191952Z AUTO 33014G20KT 21/04 A2995 RMK AO1 SLP141
T02110039





000
SAUS43 KBIS 191854
MTRN60
METAR KN60 191852Z AUTO 30012KT 21/05 A2995 RMK AO1 SLP143 T02060050





000
SAUS43 KBIS 191754
MTRN60
METAR KN60 191752Z AUTO 33010KT 19/06 A2995 RMK AO1 SLP145 T01940056
10194 20056 53012





000
SAUS43 KBIS 191653
MTRN60
METAR KN60 191652Z AUTO 30011KT 16/07 A2994 RMK AO1 SLP143 T01610067





000
SAUS43 KBIS 191554
MTRN60
METAR KN60 191552Z AUTO 31011KT 14/06 A2992 RMK AO1 SLP138 T01390061





000
SAUS43 KBIS 191453
MTRN60
METAR KN60 191452Z AUTO 31008KT 11/06 A2992 RMK AO1 SLP137 T01110061
53016





000
SAUS43 KBIS 191354
MTRN60
METAR KN60 191352Z AUTO 32007KT 07/04 A2989 RMK AO1 SLP132 T00720044





000
SAUS43 KBIS 191253
MTRN60
METAR KN60 191252Z AUTO 29006KT 07/04 A2987 RMK AO1 SLP125 T00720039





000
SAUS43 KBIS 191154
MTRN60
METAR KN60 191152Z AUTO 31005KT 07/04 A2986 RMK AO1 SLP121 T00670039
10100 20044 51014





000
SAUS43 KBIS 191053
MTRN60
METAR KN60 191052Z AUTO 29005KT 07/04 A2985 RMK AO1 SLP114 T00720039





000
SAUS43 KBIS 190954
MTRN60
METAR KN60 190952Z AUTO 29003KT 08/04 A2984 RMK AO1 SLP111 T00780044





000
SAUS43 KBIS 190954
MTRN60
METAR KN60 190952Z AUTO 29003KT 08/04 A2984 RMK AO1 SLP111 T00780044





000
SAUS43 KBIS 190853
MTRN60
METAR KN60 190852Z AUTO 28007KT 07/04 A2982 RMK AO1 SLP106 T00720044
53004





000
SAUS43 KBIS 190754
MTRN60
METAR KN60 190752Z AUTO 27008KT 09/05 A2981 RMK AO1 SLP102 T00890050





000
SAUS43 KBIS 190653
MTRN60
METAR KN60 190652Z AUTO 27006KT 08/06 A2981 RMK AO1 SLP102 T00780061





000
SAUS43 KBIS 190554
MTRN60
METAR KN60 190552Z AUTO 24003KT 08/06 A2981 RMK AO1 SLP104 T00830061
10122 20072 401331011 56008





000
SAUS43 KBIS 190453
MTRN60
METAR KN60 190452Z AUTO 19003KT 08/06 A2982 RMK AO1 SLP108 T00780061





000
SAUS43 KBIS 190453
MTRN60
METAR KN60 190452Z AUTO 19003KT 08/06 A2982 RMK AO1 SLP108 T00780061





    US Dept of Commerce
    National Oceanic and Atmospheric Administration
    National Weather Service
    1325 East West Highway
    Silver Spring, MD 20910
    Page Author: NWS Internet Services Team
Disclaimer
Information Quality
Credits
Glossary
Privacy Policy
Freedom of Information Act (FOIA)
About Us
Career Opportunities